Raleigh Durham International Airport
KRDU : now visible

Airfield :











YOU CAN JOIN US ON...

 
LOGIN :

Register | Disclaimer

   EN    FR    IT 

 









Legend :    VFR   Marginal VFR   IFR   Intensive IFR   Very Intensive IFR
Visi :
Ceiling :
>= 8 km
>= 3000ft
5 to 8 km
1000 to 3000 ft
1500m to 5 km
500 to 1000 ft
800 to 1500m
200 to 500 ft
< 800m
< 200 ft
Symbols :   Thunderstorms  Fog  Heavy snow  Heavy precipitations  Wind > 20 kt






- Airport Elevation : 435 ft
- IATA code : RDU


KRDU - Raleigh Durham International

CURRENT METAR :
  • 291251Z 00000KT 10SM FEW050 BKN210 M01/M02 A3011 RMK AO2 SLP199 T10111022

EXPIRED METARs :
  • 291151Z 00000KT 10SM FEW050 SCT220 M02/M03 A3010 RMK AO2 SLP195 T10171033 10011 21022 53014
  • 291051Z 00000KT 10SM FEW050 FEW220 M01/M03 A3008 RMK AO2 SLP186 T10061033

TAF KRDU
Valid from the 29 at 12:00 until the 30 at 12:00 UTC


291120Z 2912/3012 03003KT P6SM SCT050 BKN250
FM300000 06003KT P6SM BKN050



MET'MAP, your aeronautical weather chart ! - Copyright ORBIFLY December 2007 - Disclaimer

ORBIFLY MET'MAP TEAM :

Programming & Development : Alexandra Zaïnal
Concept & original design : Baudouin d'Aumeries
Assistance for programming : Marc-Olivier Méhu
Technical & hardware support : Manuel Goepfert

Contact : metmap@orbifly.com




SOURCES & CREDITS :

   NOAA       Earth
Advisory